sensor_id;sensor_type;location;lat;lon;timestamp;P1;durP1;ratioP1;P2;durP2;ratioP2
28028;SDS011;15345;59.364;18.016;2023-04-19T00:01:08;4.03;;;0.70;;
28028;SDS011;15345;59.364;18.016;2023-04-19T00:02:27;2.13;;;0.63;;
28028;SDS011;15345;59.364;18.016;2023-04-19T00:03:46;2.95;;;0.90;;
28028;SDS011;15345;59.364;18.016;2023-04-19T00:05:05;2.75;;;0.60;;
28028;SDS011;15345;59.364;18.016;2023-04-19T00:06:25;4.63;;;0.88;;
28028;SDS011;15345;59.364;18.016;2023-04-19T00:07:48;5.72;;;0.60;;
28028;SDS011;15345;59.364;18.016;2023-04-19T00:09:07;2.50;;;0.70;;
28028;SDS011;15345;59.364;18.016;2023-04-19T00:10:26;1.70;;;0.80;;
28028;SDS011;15345;59.364;18.016;2023-04-19T00:11:45;2.85;;;0.60;;
28028;SDS011;15345;59.364;18.016;2023-04-19T00:13:04;3.42;;;0.73;;
28028;SDS011;15345;59.364;18.016;2023-04-19T00:14:23;3.00;;;0.88;;
28028;SDS011;15345;59.364;18.016;2023-04-19T00:15:42;1.45;;;0.68;;
28028;SDS011;15345;59.364;18.016;2023-04-19T00:17:01;4.18;;;0.80;;
28028;SDS011;15345;59.364;18.016;2023-04-19T00:18:20;1.52;;;0.50;;
28028;SDS011;15345;59.364;18.016;2023-04-19T00:19:38;3.35;;;0.88;;
28028;SDS011;15345;59.364;18.016;2023-04-19T00:20:58;0.82;;;0.80;;
28028;SDS011;15345;59.364;18.016;2023-04-19T00:22:17;7.03;;;0.82;;
28028;SDS011;15345;59.364;18.016;2023-04-19T00:23:36;2.65;;;0.68;;
28028;SDS011;15345;59.364;18.016;2023-04-19T00:24:55;1.95;;;0.50;;
28028;SDS011;15345;59.364;18.016;2023-04-19T00:26:13;1.80;;;0.68;;
28028;SDS011;15345;59.364;18.016;2023-04-19T00:27:33;12.90;;;1.05;;
28028;SDS011;15345;59.364;18.016;2023-04-19T00:28:53;6.38;;;1.00;;
28028;SDS011;15345;59.364;18.016;2023-04-19T00:30:12;4.53;;;0.77;;
28028;SDS011;15345;59.364;18.016;2023-04-19T00:31:31;1.52;;;0.77;;
28028;SDS011;15345;59.364;18.016;2023-04-19T00:32:50;11.93;;;1.92;;
28028;SDS011;15345;59.364;18.016;2023-04-19T00:34:10;5.07;;;0.90;;
28028;SDS011;15345;59.364;18.016;2023-04-19T00:35:29;5.00;;;0.80;;
28028;SDS011;15345;59.364;18.016;2023-04-19T00:36:48;9.35;;;1.48;;
28028;SDS011;15345;59.364;18.016;2023-04-19T00:38:07;3.20;;;1.00;;
28028;SDS011;15345;59.364;18.016;2023-04-19T00:39:26;2.47;;;0.60;;
28028;SDS011;15345;59.364;18.016;2023-04-19T00:40:45;2.30;;;0.93;;
28028;SDS011;15345;59.364;18.016;2023-04-19T00:42:04;4.07;;;0.98;;
28028;SDS011;15345;59.364;18.016;2023-04-19T00:43:23;4.63;;;0.70;;
28028;SDS011;15345;59.364;18.016;2023-04-19T00:44:42;3.58;;;0.63;;
28028;SDS011;15345;59.364;18.016;2023-04-19T00:46:01;4.60;;;0.70;;
28028;SDS011;15345;59.364;18.016;2023-04-19T00:47:20;2.63;;;1.10;;
28028;SDS011;15345;59.364;18.016;2023-04-19T00:48:39;1.02;;;0.60;;
28028;SDS011;15345;59.364;18.016;2023-04-19T00:49:58;1.33;;;0.80;;
28028;SDS011;15345;59.364;18.016;2023-04-19T00:51:17;2.40;;;0.93;;
28028;SDS011;15345;59.364;18.016;2023-04-19T00:52:36;2.72;;;0.80;;
28028;SDS011;15345;59.364;18.016;2023-04-19T00:53:55;2.25;;;0.70;;
28028;SDS011;15345;59.364;18.016;2023-04-19T00:55:14;6.30;;;0.80;;
28028;SDS011;15345;59.364;18.016;2023-04-19T00:56:33;5.45;;;0.82;;
28028;SDS011;15345;59.364;18.016;2023-04-19T00:57:53;4.75;;;1.00;;
28028;SDS011;15345;59.364;18.016;2023-04-19T00:59:13;7.22;;;0.88;;
28028;SDS011;15345;59.364;18.016;2023-04-19T01:00:32;1.25;;;0.70;;
28028;SDS011;15345;59.364;18.016;2023-04-19T01:01:52;5.22;;;0.88;;
28028;SDS011;15345;59.364;18.016;2023-04-19T01:03:11;4.55;;;1.05;;
28028;SDS011;15345;59.364;18.016;2023-04-19T01:04:30;6.03;;;1.00;;
28028;SDS011;15345;59.364;18.016;2023-04-19T01:05:49;2.28;;;0.85;;
28028;SDS011;15345;59.364;18.016;2023-04-19T01:07:08;1.92;;;0.60;;
28028;SDS011;15345;59.364;18.016;2023-04-19T01:08:27;3.47;;;0.80;;
28028;SDS011;15345;59.364;18.016;2023-04-19T01:09:46;2.50;;;0.68;;
28028;SDS011;15345;59.364;18.016;2023-04-19T01:11:05;2.65;;;1.10;;
28028;SDS011;15345;59.364;18.016;2023-04-19T01:12:25;5.00;;;0.60;;
28028;SDS011;15345;59.364;18.016;2023-04-19T01:13:44;3.13;;;0.60;;
28028;SDS011;15345;59.364;18.016;2023-04-19T01:15:04;3.25;;;0.90;;
28028;SDS011;15345;59.364;18.016;2023-04-19T01:16:26;3.33;;;0.95;;
28028;SDS011;15345;59.364;18.016;2023-04-19T01:17:45;2.15;;;1.08;;
28028;SDS011;15345;59.364;18.016;2023-04-19T01:19:04;4.03;;;0.77;;
28028;SDS011;15345;59.364;18.016;2023-04-19T01:20:24;1.33;;;0.70;;
28028;SDS011;15345;59.364;18.016;2023-04-19T01:21:43;1.73;;;0.65;;
28028;SDS011;15345;59.364;18.016;2023-04-19T01:23:02;1.83;;;0.70;;
28028;SDS011;15345;59.364;18.016;2023-04-19T01:24:20;2.63;;;0.65;;
28028;SDS011;15345;59.364;18.016;2023-04-19T01:25:39;1.75;;;0.60;;
28028;SDS011;15345;59.364;18.016;2023-04-19T01:26:58;1.67;;;0.70;;
28028;SDS011;15345;59.364;18.016;2023-04-19T01:28:17;0.60;;;0.60;;
28028;SDS011;15345;59.364;18.016;2023-04-19T01:29:36;5.15;;;0.90;;
28028;SDS011;15345;59.364;18.016;2023-04-19T01:30:55;5.93;;;0.75;;
28028;SDS011;15345;59.364;18.016;2023-04-19T01:32:14;2.55;;;0.70;;
28028;SDS011;15345;59.364;18.016;2023-04-19T01:33:34;1.80;;;0.70;;
28028;SDS011;15345;59.364;18.016;2023-04-19T01:34:53;4.07;;;1.30;;
28028;SDS011;15345;59.364;18.016;2023-04-19T01:36:12;1.52;;;0.82;;
28028;SDS011;15345;59.364;18.016;2023-04-19T01:37:35;5.93;;;0.70;;
28028;SDS011;15345;59.364;18.016;2023-04-19T01:38:54;6.28;;;1.20;;
28028;SDS011;15345;59.364;18.016;2023-04-19T01:40:13;3.70;;;0.75;;
28028;SDS011;15345;59.364;18.016;2023-04-19T01:41:32;2.10;;;0.75;;
28028;SDS011;15345;59.364;18.016;2023-04-19T01:42:51;2.30;;;0.80;;
28028;SDS011;15345;59.364;18.016;2023-04-19T01:44:10;4.13;;;0.90;;
28028;SDS011;15345;59.364;18.016;2023-04-19T01:45:29;4.25;;;0.80;;
28028;SDS011;15345;59.364;18.016;2023-04-19T01:46:50;1.42;;;0.60;;
28028;SDS011;15345;59.364;18.016;2023-04-19T01:48:09;2.75;;;0.57;;
28028;SDS011;15345;59.364;18.016;2023-04-19T01:49:28;1.70;;;0.63;;
28028;SDS011;15345;59.364;18.016;2023-04-19T01:50:47;0.85;;;0.60;;
28028;SDS011;15345;59.364;18.016;2023-04-19T01:52:06;2.05;;;0.70;;
28028;SDS011;15345;59.364;18.016;2023-04-19T01:53:25;3.63;;;0.68;;
28028;SDS011;15345;59.364;18.016;2023-04-19T01:54:44;3.33;;;0.85;;
28028;SDS011;15345;59.364;18.016;2023-04-19T01:56:03;1.08;;;0.88;;
28028;SDS011;15345;59.364;18.016;2023-04-19T01:57:22;1.63;;;0.60;;
28028;SDS011;15345;59.364;18.016;2023-04-19T01:58:41;6.03;;;0.88;;
28028;SDS011;15345;59.364;18.016;2023-04-19T02:00:00;4.75;;;1.13;;
28028;SDS011;15345;59.364;18.016;2023-04-19T02:01:19;2.38;;;0.90;;
28028;SDS011;15345;59.364;18.016;2023-04-19T02:02:38;6.45;;;1.08;;
28028;SDS011;15345;59.364;18.016;2023-04-19T02:03:57;1.80;;;0.77;;
28028;SDS011;15345;59.364;18.016;2023-04-19T02:05:16;6.30;;;1.10;;
28028;SDS011;15345;59.364;18.016;2023-04-19T02:06:35;3.50;;;1.00;;
28028;SDS011;15345;59.364;18.016;2023-04-19T02:07:54;2.78;;;0.70;;
28028;SDS011;15345;59.364;18.016;2023-04-19T02:09:13;3.75;;;1.10;;
28028;SDS011;15345;59.364;18.016;2023-04-19T02:10:32;2.50;;;0.90;;
28028;SDS011;15345;59.364;18.016;2023-04-19T02:11:51;4.55;;;1.08;;
28028;SDS011;15345;59.364;18.016;2023-04-19T02:13:10;2.38;;;0.90;;
28028;SDS011;15345;59.364;18.016;2023-04-19T02:14:29;1.48;;;0.95;;
28028;SDS011;15345;59.364;18.016;2023-04-19T02:15:48;5.22;;;1.02;;
28028;SDS011;15345;59.364;18.016;2023-04-19T02:17:07;4.30;;;0.93;;
28028;SDS011;15345;59.364;18.016;2023-04-19T02:18:27;4.57;;;1.45;;
28028;SDS011;15345;59.364;18.016;2023-04-19T02:19:47;3.35;;;1.10;;
28028;SDS011;15345;59.364;18.016;2023-04-19T02:21:09;2.80;;;0.90;;
28028;SDS011;15345;59.364;18.016;2023-04-19T02:22:28;1.23;;;0.77;;
28028;SDS011;15345;59.364;18.016;2023-04-19T02:23:47;2.88;;;0.90;;
28028;SDS011;15345;59.364;18.016;2023-04-19T02:25:06;2.85;;;0.70;;
28028;SDS011;15345;59.364;18.016;2023-04-19T02:26:25;3.25;;;0.82;;
28028;SDS011;15345;59.364;18.016;2023-04-19T02:27:44;2.67;;;0.70;;
28028;SDS011;15345;59.364;18.016;2023-04-19T02:29:03;3.15;;;0.80;;
28028;SDS011;15345;59.364;18.016;2023-04-19T02:30:22;3.63;;;0.88;;
28028;SDS011;15345;59.364;18.016;2023-04-19T02:31:41;1.83;;;0.77;;
28028;SDS011;15345;59.364;18.016;2023-04-19T02:33:00;5.97;;;1.23;;
28028;SDS011;15345;59.364;18.016;2023-04-19T02:34:19;4.22;;;1.48;;
28028;SDS011;15345;59.364;18.016;2023-04-19T02:35:38;5.60;;;0.90;;
28028;SDS011;15345;59.364;18.016;2023-04-19T02:36:57;2.55;;;1.17;;
28028;SDS011;15345;59.364;18.016;2023-04-19T02:38:16;6.05;;;0.90;;
28028;SDS011;15345;59.364;18.016;2023-04-19T02:39:35;3.95;;;0.63;;
28028;SDS011;15345;59.364;18.016;2023-04-19T02:40:54;2.28;;;1.15;;
28028;SDS011;15345;59.364;18.016;2023-04-19T02:42:13;2.03;;;1.35;;
28028;SDS011;15345;59.364;18.016;2023-04-19T02:43:32;1.60;;;0.80;;
28028;SDS011;15345;59.364;18.016;2023-04-19T02:44:51;3.72;;;0.80;;
28028;SDS011;15345;59.364;18.016;2023-04-19T02:46:10;7.70;;;1.30;;
28028;SDS011;15345;59.364;18.016;2023-04-19T02:47:29;5.50;;;0.93;;
28028;SDS011;15345;59.364;18.016;2023-04-19T02:48:48;2.13;;;1.05;;
28028;SDS011;15345;59.364;18.016;2023-04-19T02:50:07;2.78;;;0.70;;
28028;SDS011;15345;59.364;18.016;2023-04-19T02:51:27;2.15;;;1.05;;
28028;SDS011;15345;59.364;18.016;2023-04-19T02:52:46;9.57;;;1.20;;
28028;SDS011;15345;59.364;18.016;2023-04-19T02:54:05;6.13;;;1.05;;
28028;SDS011;15345;59.364;18.016;2023-04-19T02:55:24;3.90;;;0.82;;
28028;SDS011;15345;59.364;18.016;2023-04-19T02:56:43;3.72;;;1.30;;
28028;SDS011;15345;59.364;18.016;2023-04-19T02:58:05;7.15;;;1.83;;
28028;SDS011;15345;59.364;18.016;2023-04-19T02:59:24;8.68;;;1.55;;
28028;SDS011;15345;59.364;18.016;2023-04-19T03:00:43;4.10;;;1.30;;
28028;SDS011;15345;59.364;18.016;2023-04-19T03:02:02;7.10;;;1.50;;
28028;SDS011;15345;59.364;18.016;2023-04-19T03:03:21;4.57;;;1.60;;
28028;SDS011;15345;59.364;18.016;2023-04-19T03:04:40;3.95;;;1.45;;
28028;SDS011;15345;59.364;18.016;2023-04-19T03:06:01;13.48;;;1.85;;
28028;SDS011;15345;59.364;18.016;2023-04-19T03:07:20;2.55;;;1.50;;
28028;SDS011;15345;59.364;18.016;2023-04-19T03:08:39;2.35;;;1.65;;
28028;SDS011;15345;59.364;18.016;2023-04-19T03:09:58;4.72;;;1.73;;
28028;SDS011;15345;59.364;18.016;2023-04-19T03:11:17;3.08;;;1.45;;
28028;SDS011;15345;59.364;18.016;2023-04-19T03:12:36;2.22;;;1.65;;
28028;SDS011;15345;59.364;18.016;2023-04-19T03:13:55;4.35;;;2.03;;
28028;SDS011;15345;59.364;18.016;2023-04-19T03:15:17;3.72;;;2.08;;
28028;SDS011;15345;59.364;18.016;2023-04-19T03:16:36;4.13;;;1.98;;
28028;SDS011;15345;59.364;18.016;2023-04-19T03:17:55;12.45;;;1.70;;
28028;SDS011;15345;59.364;18.016;2023-04-19T03:19:14;3.22;;;1.92;;
28028;SDS011;15345;59.364;18.016;2023-04-19T03:20:33;4.47;;;1.90;;
28028;SDS011;15345;59.364;18.016;2023-04-19T03:21:52;8.63;;;2.53;;
28028;SDS011;15345;59.364;18.016;2023-04-19T03:23:12;6.88;;;2.08;;
28028;SDS011;15345;59.364;18.016;2023-04-19T03:24:30;3.75;;;1.85;;
28028;SDS011;15345;59.364;18.016;2023-04-19T03:25:50;2.88;;;2.00;;
28028;SDS011;15345;59.364;18.016;2023-04-19T03:27:09;7.03;;;2.33;;
28028;SDS011;15345;59.364;18.016;2023-04-19T03:28:28;2.50;;;1.98;;
28028;SDS011;15345;59.364;18.016;2023-04-19T03:29:47;4.45;;;2.22;;
28028;SDS011;15345;59.364;18.016;2023-04-19T03:31:06;2.88;;;1.98;;
28028;SDS011;15345;59.364;18.016;2023-04-19T03:32:25;6.03;;;2.10;;
28028;SDS011;15345;59.364;18.016;2023-04-19T03:33:44;5.55;;;2.15;;
28028;SDS011;15345;59.364;18.016;2023-04-19T03:35:03;4.35;;;1.95;;
28028;SDS011;15345;59.364;18.016;2023-04-19T03:36:22;5.57;;;1.85;;
28028;SDS011;15345;59.364;18.016;2023-04-19T03:37:42;2.20;;;1.60;;
28028;SDS011;15345;59.364;18.016;2023-04-19T03:39:04;4.25;;;2.10;;
28028;SDS011;15345;59.364;18.016;2023-04-19T03:40:23;9.50;;;2.05;;
28028;SDS011;15345;59.364;18.016;2023-04-19T03:41:42;9.95;;;2.00;;
28028;SDS011;15345;59.364;18.016;2023-04-19T03:43:01;5.40;;;1.33;;
28028;SDS011;15345;59.364;18.016;2023-04-19T03:44:23;7.55;;;1.75;;
28028;SDS011;15345;59.364;18.016;2023-04-19T03:45:42;8.45;;;1.40;;
28028;SDS011;15345;59.364;18.016;2023-04-19T03:47:01;3.30;;;1.35;;
28028;SDS011;15345;59.364;18.016;2023-04-19T03:48:20;5.82;;;1.65;;
28028;SDS011;15345;59.364;18.016;2023-04-19T03:49:39;6.03;;;1.10;;
28028;SDS011;15345;59.364;18.016;2023-04-19T03:50:58;4.55;;;1.65;;
28028;SDS011;15345;59.364;18.016;2023-04-19T03:52:17;3.47;;;1.20;;
28028;SDS011;15345;59.364;18.016;2023-04-19T03:53:36;4.00;;;1.10;;
28028;SDS011;15345;59.364;18.016;2023-04-19T03:54:55;9.23;;;1.65;;
28028;SDS011;15345;59.364;18.016;2023-04-19T03:56:14;6.43;;;1.30;;
28028;SDS011;15345;59.364;18.016;2023-04-19T03:57:33;6.75;;;1.15;;
28028;SDS011;15345;59.364;18.016;2023-04-19T03:58:52;4.97;;;1.20;;
28028;SDS011;15345;59.364;18.016;2023-04-19T04:00:11;4.40;;;1.10;;
28028;SDS011;15345;59.364;18.016;2023-04-19T04:01:31;6.60;;;1.40;;
28028;SDS011;15345;59.364;18.016;2023-04-19T04:02:50;5.68;;;1.10;;
28028;SDS011;15345;59.364;18.016;2023-04-19T04:04:09;7.07;;;1.08;;
28028;SDS011;15345;59.364;18.016;2023-04-19T04:05:29;4.65;;;1.17;;
28028;SDS011;15345;59.364;18.016;2023-04-19T04:06:48;4.25;;;1.13;;
28028;SDS011;15345;59.364;18.016;2023-04-19T04:08:07;7.35;;;1.23;;
28028;SDS011;15345;59.364;18.016;2023-04-19T04:09:26;4.25;;;1.30;;
28028;SDS011;15345;59.364;18.016;2023-04-19T04:10:48;6.45;;;1.00;;
28028;SDS011;15345;59.364;18.016;2023-04-19T04:12:07;5.63;;;1.23;;
28028;SDS011;15345;59.364;18.016;2023-04-19T04:13:26;8.02;;;1.50;;
28028;SDS011;15345;59.364;18.016;2023-04-19T04:14:45;7.05;;;1.50;;
28028;SDS011;15345;59.364;18.016;2023-04-19T04:16:03;4.68;;;1.40;;
28028;SDS011;15345;59.364;18.016;2023-04-19T04:17:23;2.88;;;0.90;;
28028;SDS011;15345;59.364;18.016;2023-04-19T04:18:42;6.75;;;1.17;;
28028;SDS011;15345;59.364;18.016;2023-04-19T04:20:01;4.95;;;1.05;;
28028;SDS011;15345;59.364;18.016;2023-04-19T04:21:20;5.13;;;1.35;;
28028;SDS011;15345;59.364;18.016;2023-04-19T04:22:40;2.03;;;1.25;;
28028;SDS011;15345;59.364;18.016;2023-04-19T04:24:00;4.95;;;1.10;;
28028;SDS011;15345;59.364;18.016;2023-04-19T04:25:22;4.05;;;1.00;;
28028;SDS011;15345;59.364;18.016;2023-04-19T04:26:42;8.18;;;1.15;;
28028;SDS011;15345;59.364;18.016;2023-04-19T04:28:01;4.35;;;1.20;;
28028;SDS011;15345;59.364;18.016;2023-04-19T04:29:19;3.17;;;1.50;;
28028;SDS011;15345;59.364;18.016;2023-04-19T04:30:38;4.60;;;1.00;;
28028;SDS011;15345;59.364;18.016;2023-04-19T04:31:58;5.00;;;1.17;;
28028;SDS011;15345;59.364;18.016;2023-04-19T04:33:17;5.25;;;1.02;;
28028;SDS011;15345;59.364;18.016;2023-04-19T04:34:37;5.68;;;1.58;;
28028;SDS011;15345;59.364;18.016;2023-04-19T04:35:56;10.43;;;1.38;;
28028;SDS011;15345;59.364;18.016;2023-04-19T04:37:16;19.00;;;1.70;;
28028;SDS011;15345;59.364;18.016;2023-04-19T04:38:35;2.75;;;1.45;;
28028;SDS011;15345;59.364;18.016;2023-04-19T04:39:55;8.45;;;1.30;;
28028;SDS011;15345;59.364;18.016;2023-04-19T04:41:14;7.68;;;1.23;;
28028;SDS011;15345;59.364;18.016;2023-04-19T04:42:34;3.38;;;1.38;;
28028;SDS011;15345;59.364;18.016;2023-04-19T04:43:56;6.35;;;1.50;;
28028;SDS011;15345;59.364;18.016;2023-04-19T04:45:16;3.15;;;1.00;;
28028;SDS011;15345;59.364;18.016;2023-04-19T04:46:35;13.68;;;1.50;;
28028;SDS011;15345;59.364;18.016;2023-04-19T04:47:54;6.57;;;1.15;;
28028;SDS011;15345;59.364;18.016;2023-04-19T04:49:13;5.18;;;1.38;;
28028;SDS011;15345;59.364;18.016;2023-04-19T04:50:32;5.93;;;1.15;;
28028;SDS011;15345;59.364;18.016;2023-04-19T04:51:51;3.30;;;1.17;;
28028;SDS011;15345;59.364;18.016;2023-04-19T04:53:10;3.92;;;1.20;;
28028;SDS011;15345;59.364;18.016;2023-04-19T04:54:30;4.97;;;1.20;;
28028;SDS011;15345;59.364;18.016;2023-04-19T04:55:49;11.40;;;1.63;;
28028;SDS011;15345;59.364;18.016;2023-04-19T04:57:08;8.60;;;1.35;;
28028;SDS011;15345;59.364;18.016;2023-04-19T04:58:27;6.32;;;1.30;;
28028;SDS011;15345;59.364;18.016;2023-04-19T04:59:46;6.97;;;1.33;;
28028;SDS011;15345;59.364;18.016;2023-04-19T05:01:05;3.58;;;1.25;;
28028;SDS011;15345;59.364;18.016;2023-04-19T05:02:24;6.28;;;1.15;;
28028;SDS011;15345;59.364;18.016;2023-04-19T05:03:44;4.88;;;1.20;;
28028;SDS011;15345;59.364;18.016;2023-04-19T05:05:03;7.57;;;1.30;;
28028;SDS011;15345;59.364;18.016;2023-04-19T05:06:22;3.95;;;1.60;;
28028;SDS011;15345;59.364;18.016;2023-04-19T05:07:41;6.85;;;1.50;;
28028;SDS011;15345;59.364;18.016;2023-04-19T05:09:00;10.73;;;1.63;;
28028;SDS011;15345;59.364;18.016;2023-04-19T05:10:18;11.05;;;1.88;;
28028;SDS011;15345;59.364;18.016;2023-04-19T05:11:37;7.30;;;1.73;;
28028;SDS011;15345;59.364;18.016;2023-04-19T05:12:56;5.97;;;1.27;;
28028;SDS011;15345;59.364;18.016;2023-04-19T05:14:15;11.27;;;1.60;;
28028;SDS011;15345;59.364;18.016;2023-04-19T05:15:34;7.05;;;1.25;;
28028;SDS011;15345;59.364;18.016;2023-04-19T05:16:53;9.82;;;1.70;;
28028;SDS011;15345;59.364;18.016;2023-04-19T05:18:12;8.70;;;1.42;;
28028;SDS011;15345;59.364;18.016;2023-04-19T05:19:31;7.45;;;1.60;;
28028;SDS011;15345;59.364;18.016;2023-04-19T05:20:51;7.90;;;1.48;;
28028;SDS011;15345;59.364;18.016;2023-04-19T05:22:09;14.57;;;1.70;;
28028;SDS011;15345;59.364;18.016;2023-04-19T05:23:29;21.23;;;2.22;;
28028;SDS011;15345;59.364;18.016;2023-04-19T05:24:48;5.10;;;1.75;;
28028;SDS011;15345;59.364;18.016;2023-04-19T05:26:07;9.60;;;1.88;;
28028;SDS011;15345;59.364;18.016;2023-04-19T05:27:30;15.50;;;1.85;;
28028;SDS011;15345;59.364;18.016;2023-04-19T05:28:49;6.50;;;1.98;;
28028;SDS011;15345;59.364;18.016;2023-04-19T05:30:08;10.30;;;1.67;;
28028;SDS011;15345;59.364;18.016;2023-04-19T05:31:27;7.35;;;1.75;;
28028;SDS011;15345;59.364;18.016;2023-04-19T05:32:46;7.47;;;1.55;;
28028;SDS011;15345;59.364;18.016;2023-04-19T05:34:04;16.45;;;2.03;;
28028;SDS011;15345;59.364;18.016;2023-04-19T05:35:23;8.88;;;1.48;;
28028;SDS011;15345;59.364;18.016;2023-04-19T05:36:42;13.52;;;1.80;;
28028;SDS011;15345;59.364;18.016;2023-04-19T05:38:01;9.30;;;1.33;;
28028;SDS011;15345;59.364;18.016;2023-04-19T05:39:21;11.90;;;1.65;;
28028;SDS011;15345;59.364;18.016;2023-04-19T05:40:40;12.25;;;1.52;;
28028;SDS011;15345;59.364;18.016;2023-04-19T05:41:59;12.70;;;2.05;;
28028;SDS011;15345;59.364;18.016;2023-04-19T05:43:18;8.90;;;2.00;;
28028;SDS011;15345;59.364;18.016;2023-04-19T05:44:36;7.72;;;1.40;;
28028;SDS011;15345;59.364;18.016;2023-04-19T05:45:55;8.32;;;2.35;;
28028;SDS011;15345;59.364;18.016;2023-04-19T05:47:14;7.78;;;1.60;;
28028;SDS011;15345;59.364;18.016;2023-04-19T05:48:35;5.75;;;2.13;;
28028;SDS011;15345;59.364;18.016;2023-04-19T05:49:54;15.77;;;2.17;;
28028;SDS011;15345;59.364;18.016;2023-04-19T05:51:13;9.05;;;1.42;;
28028;SDS011;15345;59.364;18.016;2023-04-19T05:52:32;11.57;;;1.63;;
28028;SDS011;15345;59.364;18.016;2023-04-19T05:53:51;6.80;;;1.30;;
28028;SDS011;15345;59.364;18.016;2023-04-19T05:55:11;6.15;;;1.65;;
28028;SDS011;15345;59.364;18.016;2023-04-19T05:56:30;6.03;;;1.60;;
28028;SDS011;15345;59.364;18.016;2023-04-19T05:57:48;6.38;;;2.05;;
28028;SDS011;15345;59.364;18.016;2023-04-19T05:59:07;11.65;;;2.22;;
28028;SDS011;15345;59.364;18.016;2023-04-19T06:00:28;10.30;;;1.73;;
28028;SDS011;15345;59.364;18.016;2023-04-19T06:01:47;7.45;;;1.77;;
28028;SDS011;15345;59.364;18.016;2023-04-19T06:03:06;9.35;;;1.48;;
28028;SDS011;15345;59.364;18.016;2023-04-19T06:04:26;9.25;;;2.10;;
28028;SDS011;15345;59.364;18.016;2023-04-19T06:05:45;13.13;;;2.08;;
28028;SDS011;15345;59.364;18.016;2023-04-19T06:07:04;16.95;;;1.80;;
28028;SDS011;15345;59.364;18.016;2023-04-19T06:08:23;4.97;;;1.15;;
28028;SDS011;15345;59.364;18.016;2023-04-19T06:09:42;7.82;;;2.17;;
28028;SDS011;15345;59.364;18.016;2023-04-19T06:11:01;11.07;;;2.00;;
28028;SDS011;15345;59.364;18.016;2023-04-19T06:12:19;11.88;;;1.77;;
28028;SDS011;15345;59.364;18.016;2023-04-19T06:13:38;13.20;;;2.03;;
28028;SDS011;15345;59.364;18.016;2023-04-19T06:14:57;16.83;;;1.67;;
28028;SDS011;15345;59.364;18.016;2023-04-19T06:16:16;5.10;;;1.20;;
28028;SDS011;15345;59.364;18.016;2023-04-19T06:17:35;23.83;;;2.83;;
28028;SDS011;15345;59.364;18.016;2023-04-19T06:18:54;19.23;;;2.67;;
28028;SDS011;15345;59.364;18.016;2023-04-19T06:20:14;14.68;;;1.70;;
28028;SDS011;15345;59.364;18.016;2023-04-19T06:21:33;7.30;;;2.00;;
28028;SDS011;15345;59.364;18.016;2023-04-19T06:22:52;10.73;;;2.05;;
28028;SDS011;15345;59.364;18.016;2023-04-19T06:24:11;8.95;;;1.90;;
28028;SDS011;15345;59.364;18.016;2023-04-19T06:25:31;9.65;;;1.92;;
28028;SDS011;15345;59.364;18.016;2023-04-19T06:26:50;7.13;;;1.67;;
28028;SDS011;15345;59.364;18.016;2023-04-19T06:28:09;16.55;;;1.75;;
28028;SDS011;15345;59.364;18.016;2023-04-19T06:29:28;18.63;;;2.75;;
28028;SDS011;15345;59.364;18.016;2023-04-19T06:30:47;24.55;;;3.08;;
28028;SDS011;15345;59.364;18.016;2023-04-19T06:32:06;13.07;;;2.35;;
28028;SDS011;15345;59.364;18.016;2023-04-19T06:33:25;19.50;;;2.83;;
28028;SDS011;15345;59.364;18.016;2023-04-19T06:34:44;11.27;;;1.80;;
28028;SDS011;15345;59.364;18.016;2023-04-19T06:36:03;9.93;;;1.70;;
28028;SDS011;15345;59.364;18.016;2023-04-19T06:37:22;14.60;;;2.40;;
28028;SDS011;15345;59.364;18.016;2023-04-19T06:38:41;8.00;;;1.70;;
28028;SDS011;15345;59.364;18.016;2023-04-19T06:40:02;5.72;;;1.80;;
28028;SDS011;15345;59.364;18.016;2023-04-19T06:41:22;22.95;;;2.22;;
28028;SDS011;15345;59.364;18.016;2023-04-19T06:42:41;11.43;;;2.05;;
28028;SDS011;15345;59.364;18.016;2023-04-19T06:44:00;10.18;;;1.67;;
28028;SDS011;15345;59.364;18.016;2023-04-19T06:45:19;11.60;;;2.03;;
28028;SDS011;15345;59.364;18.016;2023-04-19T06:46:38;21.83;;;2.45;;
28028;SDS011;15345;59.364;18.016;2023-04-19T06:47:57;15.98;;;2.05;;
28028;SDS011;15345;59.364;18.016;2023-04-19T06:49:16;10.82;;;1.83;;
28028;SDS011;15345;59.364;18.016;2023-04-19T06:50:35;19.80;;;2.30;;
28028;SDS011;15345;59.364;18.016;2023-04-19T06:51:54;11.02;;;2.28;;
28028;SDS011;15345;59.364;18.016;2023-04-19T06:53:13;9.43;;;1.88;;
28028;SDS011;15345;59.364;18.016;2023-04-19T06:54:32;26.13;;;2.50;;
28028;SDS011;15345;59.364;18.016;2023-04-19T06:56:01;17.98;;;2.65;;
28028;SDS011;15345;59.364;18.016;2023-04-19T06:57:20;6.28;;;2.05;;
28028;SDS011;15345;59.364;18.016;2023-04-19T06:58:39;14.73;;;1.90;;
28028;SDS011;15345;59.364;18.016;2023-04-19T06:59:58;8.23;;;1.63;;
28028;SDS011;15345;59.364;18.016;2023-04-19T07:01:17;6.38;;;1.35;;
28028;SDS011;15345;59.364;18.016;2023-04-19T07:02:36;9.60;;;2.03;;
28028;SDS011;15345;59.364;18.016;2023-04-19T07:03:55;16.08;;;2.03;;
28028;SDS011;15345;59.364;18.016;2023-04-19T07:05:14;10.48;;;1.63;;
28028;SDS011;15345;59.364;18.016;2023-04-19T07:06:34;16.70;;;2.35;;
28028;SDS011;15345;59.364;18.016;2023-04-19T07:07:53;3.90;;;1.50;;
28028;SDS011;15345;59.364;18.016;2023-04-19T07:09:12;19.83;;;2.40;;
28028;SDS011;15345;59.364;18.016;2023-04-19T07:10:31;15.43;;;1.80;;
28028;SDS011;15345;59.364;18.016;2023-04-19T07:11:50;10.13;;;1.35;;
28028;SDS011;15345;59.364;18.016;2023-04-19T07:13:10;11.80;;;2.17;;
28028;SDS011;15345;59.364;18.016;2023-04-19T07:14:29;6.68;;;1.58;;
28028;SDS011;15345;59.364;18.016;2023-04-19T07:15:48;10.95;;;1.60;;
28028;SDS011;15345;59.364;18.016;2023-04-19T07:17:07;6.45;;;1.52;;
28028;SDS011;15345;59.364;18.016;2023-04-19T07:18:26;4.15;;;1.38;;
28028;SDS011;15345;59.364;18.016;2023-04-19T07:19:46;12.15;;;1.48;;
28028;SDS011;15345;59.364;18.016;2023-04-19T07:21:05;8.43;;;1.33;;
28028;SDS011;15345;59.364;18.016;2023-04-19T07:22:24;4.25;;;0.93;;
28028;SDS011;15345;59.364;18.016;2023-04-19T07:23:42;7.15;;;1.13;;
28028;SDS011;15345;59.364;18.016;2023-04-19T07:25:01;7.28;;;1.20;;
28028;SDS011;15345;59.364;18.016;2023-04-19T07:26:21;8.05;;;1.30;;
28028;SDS011;15345;59.364;18.016;2023-04-19T07:27:40;8.20;;;1.38;;
28028;SDS011;15345;59.364;18.016;2023-04-19T07:28:59;14.20;;;1.35;;
28028;SDS011;15345;59.364;18.016;2023-04-19T07:30:18;7.97;;;2.08;;
28028;SDS011;15345;59.364;18.016;2023-04-19T07:31:37;7.00;;;1.10;;
28028;SDS011;15345;59.364;18.016;2023-04-19T07:32:56;7.18;;;1.27;;
28028;SDS011;15345;59.364;18.016;2023-04-19T07:34:15;6.95;;;1.00;;
28028;SDS011;15345;59.364;18.016;2023-04-19T07:35:34;17.65;;;1.90;;
28028;SDS011;15345;59.364;18.016;2023-04-19T07:36:53;7.43;;;1.42;;
28028;SDS011;15345;59.364;18.016;2023-04-19T07:38:12;13.57;;;1.67;;
28028;SDS011;15345;59.364;18.016;2023-04-19T07:39:31;17.05;;;1.42;;
28028;SDS011;15345;59.364;18.016;2023-04-19T07:40:51;8.23;;;1.30;;
28028;SDS011;15345;59.364;18.016;2023-04-19T07:42:10;8.90;;;1.45;;
28028;SDS011;15345;59.364;18.016;2023-04-19T07:43:29;11.82;;;1.67;;
28028;SDS011;15345;59.364;18.016;2023-04-19T07:44:48;3.58;;;1.15;;
28028;SDS011;15345;59.364;18.016;2023-04-19T07:46:11;11.02;;;1.42;;
28028;SDS011;15345;59.364;18.016;2023-04-19T07:48:49;17.48;;;2.20;;
28028;SDS011;15345;59.364;18.016;2023-04-19T07:50:08;11.27;;;1.70;;